sensor_id;sensor_type;location;lat;lon;timestamp;temperature;humidity
32877;DHT22;19226;51.600;8.034;2023-01-08T00:00:01;11.10;99.90
32877;DHT22;19226;51.600;8.034;2023-01-08T00:02:38;11.10;99.90
32877;DHT22;19226;51.600;8.034;2023-01-08T00:05:06;11.10;99.90
32877;DHT22;19226;51.600;8.034;2023-01-08T00:07:33;11.10;99.90
32877;DHT22;19226;51.600;8.034;2023-01-08T00:09:59;11.10;99.90
32877;DHT22;19226;51.600;8.034;2023-01-08T00:12:26;11.10;99.90
32877;DHT22;19226;51.600;8.034;2023-01-08T00:14:52;11.00;99.90
32877;DHT22;19226;51.600;8.034;2023-01-08T00:17:19;11.00;99.90
32877;DHT22;19226;51.600;8.034;2023-01-08T00:19:45;11.00;99.90
32877;DHT22;19226;51.600;8.034;2023-01-08T00:22:11;11.00;99.90
32877;DHT22;19226;51.600;8.034;2023-01-08T00:24:40;11.00;99.90
32877;DHT22;19226;51.600;8.034;2023-01-08T00:27:06;11.00;99.90
32877;DHT22;19226;51.600;8.034;2023-01-08T00:29:33;11.00;99.90
32877;DHT22;19226;51.600;8.034;2023-01-08T00:31:59;11.00;99.90
32877;DHT22;19226;51.600;8.034;2023-01-08T00:34:25;11.00;99.90
32877;DHT22;19226;51.600;8.034;2023-01-08T00:36:53;11.00;99.90
32877;DHT22;19226;51.600;8.034;2023-01-08T00:39:19;11.00;99.90
32877;DHT22;19226;51.600;8.034;2023-01-08T00:42:04;11.00;99.90
32877;DHT22;19226;51.600;8.034;2023-01-08T00:44:30;11.00;99.90
32877;DHT22;19226;51.600;8.034;2023-01-08T00:47:16;11.00;99.90
32877;DHT22;19226;51.600;8.034;2023-01-08T00:49:43;11.00;99.90
32877;DHT22;19226;51.600;8.034;2023-01-08T00:52:29;11.00;99.90
32877;DHT22;19226;51.600;8.034;2023-01-08T00:54:56;11.10;99.90
32877;DHT22;19226;51.600;8.034;2023-01-08T00:57:24;11.00;99.90
32877;DHT22;19226;51.600;8.034;2023-01-08T00:59:52;11.00;99.90
32877;DHT22;19226;51.600;8.034;2023-01-08T01:02:19;11.00;99.90
32877;DHT22;19226;51.600;8.034;2023-01-08T01:04:57;11.00;99.90
32877;DHT22;19226;51.600;8.034;2023-01-08T01:07:23;11.00;99.90
32877;DHT22;19226;51.600;8.034;2023-01-08T01:09:52;11.10;99.90
32877;DHT22;19226;51.600;8.034;2023-01-08T01:16:06;11.10;99.90
32877;DHT22;19226;51.600;8.034;2023-01-08T01:18:44;11.10;99.90
32877;DHT22;19226;51.600;8.034;2023-01-08T01:24:33;11.10;99.90
32877;DHT22;19226;51.600;8.034;2023-01-08T01:27:20;11.00;99.90
32877;DHT22;19226;51.600;8.034;2023-01-08T01:32:52;11.10;99.90
32877;DHT22;19226;51.600;8.034;2023-01-08T01:35:18;11.10;99.90
32877;DHT22;19226;51.600;8.034;2023-01-08T01:37:46;11.10;99.90
32877;DHT22;19226;51.600;8.034;2023-01-08T01:40:12;11.10;99.90
32877;DHT22;19226;51.600;8.034;2023-01-08T01:42:39;11.10;99.90
32877;DHT22;19226;51.600;8.034;2023-01-08T01:45:25;11.10;99.90
32877;DHT22;19226;51.600;8.034;2023-01-08T01:48:09;11.10;99.90
32877;DHT22;19226;51.600;8.034;2023-01-08T01:50:40;11.10;99.90
32877;DHT22;19226;51.600;8.034;2023-01-08T01:56:19;11.10;99.90
32877;DHT22;19226;51.600;8.034;2023-01-08T01:58:46;11.10;99.90
32877;DHT22;19226;51.600;8.034;2023-01-08T02:01:12;11.10;99.90
32877;DHT22;19226;51.600;8.034;2023-01-08T02:03:57;11.00;99.90
32877;DHT22;19226;51.600;8.034;2023-01-08T02:06:36;11.10;99.90
32877;DHT22;19226;51.600;8.034;2023-01-08T02:09:28;11.10;99.90
32877;DHT22;19226;51.600;8.034;2023-01-08T02:20:51;11.00;99.90
32877;DHT22;19226;51.600;8.034;2023-01-08T02:26:34;11.10;99.90
32877;DHT22;19226;51.600;8.034;2023-01-08T02:29:22;11.10;99.90
32877;DHT22;19226;51.600;8.034;2023-01-08T02:31:48;11.10;99.90
32877;DHT22;19226;51.600;8.034;2023-01-08T02:34:36;11.10;99.90
32877;DHT22;19226;51.600;8.034;2023-01-08T02:37:02;11.10;99.90
32877;DHT22;19226;51.600;8.034;2023-01-08T02:39:58;11.10;99.90
32877;DHT22;19226;51.600;8.034;2023-01-08T02:42:48;11.20;99.90
32877;DHT22;19226;51.600;8.034;2023-01-08T02:50:51;11.20;99.90
32877;DHT22;19226;51.600;8.034;2023-01-08T02:53:44;11.20;99.90
32877;DHT22;19226;51.600;8.034;2023-01-08T02:56:18;11.10;99.90
32877;DHT22;19226;51.600;8.034;2023-01-08T02:59:04;11.10;99.90
32877;DHT22;19226;51.600;8.034;2023-01-08T03:01:33;11.10;99.90
32877;DHT22;19226;51.600;8.034;2023-01-08T03:04:19;11.10;99.90
32877;DHT22;19226;51.600;8.034;2023-01-08T03:07:04;11.20;99.90
32877;DHT22;19226;51.600;8.034;2023-01-08T03:09:31;11.20;99.90
32877;DHT22;19226;51.600;8.034;2023-01-08T03:12:17;11.20;99.90
32877;DHT22;19226;51.600;8.034;2023-01-08T03:14:52;11.20;99.90
32877;DHT22;19226;51.600;8.034;2023-01-08T03:18:03;11.20;99.90
32877;DHT22;19226;51.600;8.034;2023-01-08T03:24:19;11.20;99.90
32877;DHT22;19226;51.600;8.034;2023-01-08T03:26:50;11.20;99.90
32877;DHT22;19226;51.600;8.034;2023-01-08T03:29:19;11.20;99.90
32877;DHT22;19226;51.600;8.034;2023-01-08T03:35:18;11.20;99.90
32877;DHT22;19226;51.600;8.034;2023-01-08T03:38:12;11.20;99.90
32877;DHT22;19226;51.600;8.034;2023-01-08T03:40:44;11.10;99.90
32877;DHT22;19226;51.600;8.034;2023-01-08T03:43:12;11.10;99.90
32877;DHT22;19226;51.600;8.034;2023-01-08T03:45:48;11.20;99.90
32877;DHT22;19226;51.600;8.034;2023-01-08T03:48:34;11.20;99.90
32877;DHT22;19226;51.600;8.034;2023-01-08T03:51:01;11.10;99.90
32877;DHT22;19226;51.600;8.034;2023-01-08T03:53:29;11.10;99.90
32877;DHT22;19226;51.600;8.034;2023-01-08T03:56:16;11.10;99.90
32877;DHT22;19226;51.600;8.034;2023-01-08T03:58:42;11.10;99.90
32877;DHT22;19226;51.600;8.034;2023-01-08T04:01:10;11.10;99.90
32877;DHT22;19226;51.600;8.034;2023-01-08T04:03:36;11.10;99.90
32877;DHT22;19226;51.600;8.034;2023-01-08T04:06:22;11.00;99.90
32877;DHT22;19226;51.600;8.034;2023-01-08T04:08:48;11.10;99.90
32877;DHT22;19226;51.600;8.034;2023-01-08T04:11:14;11.00;99.90
32877;DHT22;19226;51.600;8.034;2023-01-08T04:13:42;11.00;99.90
32877;DHT22;19226;51.600;8.034;2023-01-08T04:16:07;11.00;99.90
32877;DHT22;19226;51.600;8.034;2023-01-08T04:18:55;11.00;99.90
32877;DHT22;19226;51.600;8.034;2023-01-08T04:21:21;11.00;99.90
32877;DHT22;19226;51.600;8.034;2023-01-08T04:23:47;10.90;99.90
32877;DHT22;19226;51.600;8.034;2023-01-08T04:29:37;10.90;99.90
32877;DHT22;19226;51.600;8.034;2023-01-08T04:32:24;10.80;99.90
32877;DHT22;19226;51.600;8.034;2023-01-08T04:34:50;10.80;99.90
32877;DHT22;19226;51.600;8.034;2023-01-08T04:37:17;10.80;99.90
32877;DHT22;19226;51.600;8.034;2023-01-08T04:39:43;10.90;99.90
32877;DHT22;19226;51.600;8.034;2023-01-08T04:42:28;10.90;99.90
32877;DHT22;19226;51.600;8.034;2023-01-08T04:44:55;10.90;99.90
32877;DHT22;19226;51.600;8.034;2023-01-08T04:47:22;10.90;99.90
32877;DHT22;19226;51.600;8.034;2023-01-08T04:49:48;10.80;99.90
32877;DHT22;19226;51.600;8.034;2023-01-08T04:52:16;10.80;99.90
32877;DHT22;19226;51.600;8.034;2023-01-08T04:54:42;10.80;99.90
32877;DHT22;19226;51.600;8.034;2023-01-08T04:57:07;10.90;99.90
32877;DHT22;19226;51.600;8.034;2023-01-08T04:59:35;10.90;99.90
32877;DHT22;19226;51.600;8.034;2023-01-08T05:02:01;10.80;99.90
32877;DHT22;19226;51.600;8.034;2023-01-08T05:04:28;10.90;99.90
32877;DHT22;19226;51.600;8.034;2023-01-08T05:06:54;10.80;99.90
32877;DHT22;19226;51.600;8.034;2023-01-08T05:09:21;10.80;99.90
32877;DHT22;19226;51.600;8.034;2023-01-08T05:11:47;10.80;99.90
32877;DHT22;19226;51.600;8.034;2023-01-08T05:14:14;10.90;99.90
32877;DHT22;19226;51.600;8.034;2023-01-08T05:16:42;10.80;99.90
32877;DHT22;19226;51.600;8.034;2023-01-08T05:19:08;10.90;99.90
32877;DHT22;19226;51.600;8.034;2023-01-08T05:21:34;10.80;99.90
32877;DHT22;19226;51.600;8.034;2023-01-08T05:24:00;10.80;99.90
32877;DHT22;19226;51.600;8.034;2023-01-08T05:26:28;10.80;99.90
32877;DHT22;19226;51.600;8.034;2023-01-08T05:28:54;10.90;99.90
32877;DHT22;19226;51.600;8.034;2023-01-08T05:31:21;10.90;99.90
32877;DHT22;19226;51.600;8.034;2023-01-08T05:33:47;10.90;99.90
32877;DHT22;19226;51.600;8.034;2023-01-08T05:36:14;10.90;99.90
32877;DHT22;19226;51.600;8.034;2023-01-08T05:38:40;10.90;99.90
32877;DHT22;19226;51.600;8.034;2023-01-08T05:41:07;10.90;99.90
32877;DHT22;19226;51.600;8.034;2023-01-08T05:43:35;10.90;99.90
32877;DHT22;19226;51.600;8.034;2023-01-08T05:46:04;10.90;99.90
32877;DHT22;19226;51.600;8.034;2023-01-08T05:48:32;10.90;99.90
32877;DHT22;19226;51.600;8.034;2023-01-08T05:50:59;10.90;99.90
32877;DHT22;19226;51.600;8.034;2023-01-08T05:53:26;10.90;99.90
32877;DHT22;19226;51.600;8.034;2023-01-08T05:56:05;10.90;99.90
32877;DHT22;19226;51.600;8.034;2023-01-08T05:58:31;10.90;99.90
32877;DHT22;19226;51.600;8.034;2023-01-08T06:01:12;10.90;99.90
32877;DHT22;19226;51.600;8.034;2023-01-08T06:03:40;10.90;99.90
32877;DHT22;19226;51.600;8.034;2023-01-08T06:06:07;10.90;99.90
32877;DHT22;19226;51.600;8.034;2023-01-08T06:08:33;10.90;99.90
32877;DHT22;19226;51.600;8.034;2023-01-08T06:11:01;10.90;99.90
32877;DHT22;19226;51.600;8.034;2023-01-08T06:13:28;10.80;99.90
32877;DHT22;19226;51.600;8.034;2023-01-08T06:15:57;10.80;99.90
32877;DHT22;19226;51.600;8.034;2023-01-08T06:18:25;10.70;99.90
32877;DHT22;19226;51.600;8.034;2023-01-08T06:20:51;10.70;99.90
32877;DHT22;19226;51.600;8.034;2023-01-08T06:23:17;10.70;99.90
32877;DHT22;19226;51.600;8.034;2023-01-08T06:25:51;10.60;99.90
32877;DHT22;19226;51.600;8.034;2023-01-08T06:28:17;10.60;99.90
32877;DHT22;19226;51.600;8.034;2023-01-08T06:30:44;10.60;99.90
32877;DHT22;19226;51.600;8.034;2023-01-08T06:33:10;10.60;99.90
32877;DHT22;19226;51.600;8.034;2023-01-08T06:35:36;10.50;99.90
32877;DHT22;19226;51.600;8.034;2023-01-08T06:38:04;10.50;99.90
32877;DHT22;19226;51.600;8.034;2023-01-08T06:40:30;10.50;99.90
32877;DHT22;19226;51.600;8.034;2023-01-08T06:43:05;10.50;99.90
32877;DHT22;19226;51.600;8.034;2023-01-08T06:45:32;10.50;99.90
32877;DHT22;19226;51.600;8.034;2023-01-08T06:48:03;10.50;99.90
32877;DHT22;19226;51.600;8.034;2023-01-08T06:50:30;10.50;99.90
32877;DHT22;19226;51.600;8.034;2023-01-08T06:52:58;10.50;99.90
32877;DHT22;19226;51.600;8.034;2023-01-08T06:55:25;10.50;99.90
32877;DHT22;19226;51.600;8.034;2023-01-08T06:57:55;10.50;99.90
32877;DHT22;19226;51.600;8.034;2023-01-08T07:00:21;10.50;99.90
32877;DHT22;19226;51.600;8.034;2023-01-08T07:02:49;10.50;99.90
32877;DHT22;19226;51.600;8.034;2023-01-08T07:05:16;10.50;99.90
32877;DHT22;19226;51.600;8.034;2023-01-08T07:07:42;10.60;99.90
32877;DHT22;19226;51.600;8.034;2023-01-08T07:10:08;10.60;99.90
32877;DHT22;19226;51.600;8.034;2023-01-08T07:12:35;10.50;99.90
32877;DHT22;19226;51.600;8.034;2023-01-08T07:15:01;10.50;99.90
32877;DHT22;19226;51.600;8.034;2023-01-08T07:17:27;10.50;99.90
32877;DHT22;19226;51.600;8.034;2023-01-08T07:19:53;10.50;99.90
32877;DHT22;19226;51.600;8.034;2023-01-08T07:22:20;10.40;99.90
32877;DHT22;19226;51.600;8.034;2023-01-08T07:24:47;10.40;99.90
32877;DHT22;19226;51.600;8.034;2023-01-08T07:27:13;10.40;99.90
32877;DHT22;19226;51.600;8.034;2023-01-08T07:29:39;10.40;99.90
32877;DHT22;19226;51.600;8.034;2023-01-08T07:32:05;10.40;99.90
32877;DHT22;19226;51.600;8.034;2023-01-08T07:34:31;10.30;99.90
32877;DHT22;19226;51.600;8.034;2023-01-08T07:37:00;10.30;99.90
32877;DHT22;19226;51.600;8.034;2023-01-08T07:39:26;10.30;99.90
32877;DHT22;19226;51.600;8.034;2023-01-08T07:41:52;10.30;99.90
32877;DHT22;19226;51.600;8.034;2023-01-08T07:44:18;10.30;99.90
32877;DHT22;19226;51.600;8.034;2023-01-08T07:46:45;10.30;99.90
32877;DHT22;19226;51.600;8.034;2023-01-08T07:49:11;10.30;99.90
32877;DHT22;19226;51.600;8.034;2023-01-08T07:51:37;10.30;99.90
32877;DHT22;19226;51.600;8.034;2023-01-08T07:54:06;10.30;99.90
32877;DHT22;19226;51.600;8.034;2023-01-08T07:56:32;10.20;99.90
32877;DHT22;19226;51.600;8.034;2023-01-08T07:58:58;10.30;99.90
32877;DHT22;19226;51.600;8.034;2023-01-08T08:01:26;10.30;99.90
32877;DHT22;19226;51.600;8.034;2023-01-08T08:03:52;10.30;99.90
32877;DHT22;19226;51.600;8.034;2023-01-08T08:06:19;10.40;99.90
32877;DHT22;19226;51.600;8.034;2023-01-08T08:08:45;10.40;99.90
32877;DHT22;19226;51.600;8.034;2023-01-08T08:11:16;10.40;99.90
32877;DHT22;19226;51.600;8.034;2023-01-08T08:13:43;10.40;99.90
32877;DHT22;19226;51.600;8.034;2023-01-08T08:16:12;10.40;99.90
32877;DHT22;19226;51.600;8.034;2023-01-08T08:18:38;10.40;99.90
32877;DHT22;19226;51.600;8.034;2023-01-08T08:21:04;10.50;99.90
32877;DHT22;19226;51.600;8.034;2023-01-08T08:23:31;10.50;99.90
32877;DHT22;19226;51.600;8.034;2023-01-08T08:25:57;10.50;99.90
32877;DHT22;19226;51.600;8.034;2023-01-08T08:28:26;10.50;99.90
32877;DHT22;19226;51.600;8.034;2023-01-08T08:30:52;10.50;99.90
32877;DHT22;19226;51.600;8.034;2023-01-08T08:33:18;10.50;99.90
32877;DHT22;19226;51.600;8.034;2023-01-08T08:35:50;10.50;99.90
32877;DHT22;19226;51.600;8.034;2023-01-08T08:38:23;10.40;99.90
32877;DHT22;19226;51.600;8.034;2023-01-08T08:40:53;10.20;99.90
32877;DHT22;19226;51.600;8.034;2023-01-08T08:43:19;10.20;99.90
32877;DHT22;19226;51.600;8.034;2023-01-08T08:45:45;10.20;99.90
32877;DHT22;19226;51.600;8.034;2023-01-08T08:48:12;10.20;99.90
32877;DHT22;19226;51.600;8.034;2023-01-08T08:50:38;10.10;99.90
32877;DHT22;19226;51.600;8.034;2023-01-08T08:53:05;10.10;99.90
32877;DHT22;19226;51.600;8.034;2023-01-08T08:55:33;10.00;99.90
32877;DHT22;19226;51.600;8.034;2023-01-08T08:58:18;10.00;99.90
32877;DHT22;19226;51.600;8.034;2023-01-08T09:00:44;10.00;99.90
32877;DHT22;19226;51.600;8.034;2023-01-08T09:03:12;10.00;99.90
32877;DHT22;19226;51.600;8.034;2023-01-08T09:05:39;10.00;99.90
32877;DHT22;19226;51.600;8.034;2023-01-08T09:08:06;10.00;99.90
32877;DHT22;19226;51.600;8.034;2023-01-08T09:10:32;10.00;99.90
32877;DHT22;19226;51.600;8.034;2023-01-08T09:12:58;10.00;99.90
32877;DHT22;19226;51.600;8.034;2023-01-08T09:15:24;10.10;99.90
32877;DHT22;19226;51.600;8.034;2023-01-08T09:17:55;10.10;99.90
32877;DHT22;19226;51.600;8.034;2023-01-08T09:20:23;10.10;99.90
32877;DHT22;19226;51.600;8.034;2023-01-08T09:22:49;10.10;99.90
32877;DHT22;19226;51.600;8.034;2023-01-08T09:25:16;10.10;99.90
32877;DHT22;19226;51.600;8.034;2023-01-08T09:27:43;10.10;99.90
32877;DHT22;19226;51.600;8.034;2023-01-08T09:30:11;10.00;99.90
32877;DHT22;19226;51.600;8.034;2023-01-08T09:32:37;10.00;99.90
32877;DHT22;19226;51.600;8.034;2023-01-08T09:35:04;10.00;99.90
32877;DHT22;19226;51.600;8.034;2023-01-08T09:37:30;10.00;99.90
32877;DHT22;19226;51.600;8.034;2023-01-08T09:39:57;10.00;99.90
32877;DHT22;19226;51.600;8.034;2023-01-08T09:42:25;10.00;99.90
32877;DHT22;19226;51.600;8.034;2023-01-08T09:44:58;10.00;99.90
32877;DHT22;19226;51.600;8.034;2023-01-08T09:47:31;10.00;99.90
32877;DHT22;19226;51.600;8.034;2023-01-08T09:50:02;10.00;99.90
32877;DHT22;19226;51.600;8.034;2023-01-08T09:52:31;10.00;99.90
32877;DHT22;19226;51.600;8.034;2023-01-08T09:54:58;10.00;99.90
32877;DHT22;19226;51.600;8.034;2023-01-08T09:57:26;10.00;99.90
32877;DHT22;19226;51.600;8.034;2023-01-08T09:59:53;10.10;99.90
32877;DHT22;19226;51.600;8.034;2023-01-08T10:02:25;10.10;99.90
32877;DHT22;19226;51.600;8.034;2023-01-08T10:04:58;10.10;99.90
32877;DHT22;19226;51.600;8.034;2023-01-08T10:07:28;10.10;99.90
32877;DHT22;19226;51.600;8.034;2023-01-08T10:09:56;10.20;99.90
32877;DHT22;19226;51.600;8.034;2023-01-08T10:12:32;10.20;99.90
32877;DHT22;19226;51.600;8.034;2023-01-08T10:15:05;10.20;99.90
32877;DHT22;19226;51.600;8.034;2023-01-08T10:18:04;10.30;99.90
32877;DHT22;19226;51.600;8.034;2023-01-08T10:20:32;10.30;99.90
32877;DHT22;19226;51.600;8.034;2023-01-08T10:23:18;10.30;99.90
32877;DHT22;19226;51.600;8.034;2023-01-08T10:25:55;10.30;99.90
32877;DHT22;19226;51.600;8.034;2023-01-08T10:28:27;10.40;99.90
32877;DHT22;19226;51.600;8.034;2023-01-08T10:31:06;10.40;99.90
32877;DHT22;19226;51.600;8.034;2023-01-08T10:33:42;10.40;99.90
32877;DHT22;19226;51.600;8.034;2023-01-08T10:36:12;10.40;99.90
32877;DHT22;19226;51.600;8.034;2023-01-08T10:38:54;10.30;99.90
32877;DHT22;19226;51.600;8.034;2023-01-08T10:41:21;10.40;99.90
32877;DHT22;19226;51.600;8.034;2023-01-08T10:44:02;10.40;99.90
32877;DHT22;19226;51.600;8.034;2023-01-08T10:46:34;10.40;99.90
32877;DHT22;19226;51.600;8.034;2023-01-08T10:51:51;10.40;99.90
32877;DHT22;19226;51.600;8.034;2023-01-08T10:54:37;10.40;99.90
32877;DHT22;19226;51.600;8.034;2023-01-08T10:57:26;10.40;99.90
32877;DHT22;19226;51.600;8.034;2023-01-08T11:00:24;10.40;99.90
32877;DHT22;19226;51.600;8.034;2023-01-08T11:02:51;10.40;99.90
32877;DHT22;19226;51.600;8.034;2023-01-08T11:05:17;10.40;99.90
32877;DHT22;19226;51.600;8.034;2023-01-08T11:07:48;10.40;99.90
32877;DHT22;19226;51.600;8.034;2023-01-08T11:10:23;10.50;99.90
32877;DHT22;19226;51.600;8.034;2023-01-08T11:12:55;10.50;99.90
32877;DHT22;19226;51.600;8.034;2023-01-08T11:17:47;10.50;99.90
32877;DHT22;19226;51.600;8.034;2023-01-08T11:20:28;10.70;99.90
32877;DHT22;19226;51.600;8.034;2023-01-08T11:23:26;10.80;99.90
32877;DHT22;19226;51.600;8.034;2023-01-08T11:29:03;10.90;99.90
32877;DHT22;19226;51.600;8.034;2023-01-08T11:35:00;11.10;99.90
32877;DHT22;19226;51.600;8.034;2023-01-08T11:37:36;11.20;99.90
32877;DHT22;19226;51.600;8.034;2023-01-08T11:40:15;11.20;99.90
32877;DHT22;19226;51.600;8.034;2023-01-08T11:48:49;11.40;99.90
32877;DHT22;19226;51.600;8.034;2023-01-08T12:04:01;11.80;99.90
32877;DHT22;19226;51.600;8.034;2023-01-08T12:10:14;11.90;99.90
32877;DHT22;19226;51.600;8.034;2023-01-08T12:27:10;12.00;99.90
32877;DHT22;19226;51.600;8.034;2023-01-08T12:32:22;12.00;99.90
32877;DHT22;19226;51.600;8.034;2023-01-08T12:37:28;11.90;99.90
32877;DHT22;19226;51.600;8.034;2023-01-08T12:40:24;11.90;99.90
32877;DHT22;19226;51.600;8.034;2023-01-08T12:42:53;11.90;99.90
32877;DHT22;19226;51.600;8.034;2023-01-08T12:45:39;11.90;99.90
32877;DHT22;19226;51.600;8.034;2023-01-08T12:48:07;11.90;99.90
32877;DHT22;19226;51.600;8.034;2023-01-08T12:51:00;11.80;99.90
32877;DHT22;19226;51.600;8.034;2023-01-08T12:53:36;11.90;99.90
32877;DHT22;19226;51.600;8.034;2023-01-08T12:59:45;11.90;99.90
32877;DHT22;19226;51.600;8.034;2023-01-08T13:02:33;11.90;99.90
32877;DHT22;19226;51.600;8.034;2023-01-08T13:05:32;11.90;99.90
32877;DHT22;19226;51.600;8.034;2023-01-08T13:08:06;11.80;99.90
32877;DHT22;19226;51.600;8.034;2023-01-08T13:19:00;11.90;99.90
32877;DHT22;19226;51.600;8.034;2023-01-08T13:21:37;11.80;99.90
32877;DHT22;19226;51.600;8.034;2023-01-08T13:24:32;11.90;99.90
32877;DHT22;19226;51.600;8.034;2023-01-08T13:29:50;11.90;99.90
32877;DHT22;19226;51.600;8.034;2023-01-08T13:32:43;12.00;99.90
32877;DHT22;19226;51.600;8.034;2023-01-08T13:37:41;12.00;99.90
32877;DHT22;19226;51.600;8.034;2023-01-08T13:43:15;11.90;99.90
32877;DHT22;19226;51.600;8.034;2023-01-08T13:46:04;11.80;99.90
32877;DHT22;19226;51.600;8.034;2023-01-08T13:48:46;11.70;99.90
32877;DHT22;19226;51.600;8.034;2023-01-08T13:51:30;11.70;99.90
32877;DHT22;19226;51.600;8.034;2023-01-08T13:56:40;11.60;99.90
32877;DHT22;19226;51.600;8.034;2023-01-08T13:59:26;11.50;99.90
32877;DHT22;19226;51.600;8.034;2023-01-08T14:01:55;11.50;99.90
32877;DHT22;19226;51.600;8.034;2023-01-08T14:04:23;11.30;99.90
32877;DHT22;19226;51.600;8.034;2023-01-08T14:06:49;11.30;99.90
32877;DHT22;19226;51.600;8.034;2023-01-08T14:09:21;11.20;99.90
32877;DHT22;19226;51.600;8.034;2023-01-08T14:11:54;11.10;99.90
32877;DHT22;19226;51.600;8.034;2023-01-08T14:14:22;11.00;99.90
32877;DHT22;19226;51.600;8.034;2023-01-08T14:16:50;10.90;99.90
32877;DHT22;19226;51.600;8.034;2023-01-08T14:19:21;10.70;99.90
32877;DHT22;19226;51.600;8.034;2023-01-08T14:21:50;10.60;99.90
32877;DHT22;19226;51.600;8.034;2023-01-08T14:24:17;10.50;99.90
32877;DHT22;19226;51.600;8.034;2023-01-08T14:26:59;10.40;99.90
32877;DHT22;19226;51.600;8.034;2023-01-08T14:29:28;10.40;99.90
32877;DHT22;19226;51.600;8.034;2023-01-08T14:31:58;10.30;99.90
32877;DHT22;19226;51.600;8.034;2023-01-08T14:34:27;10.30;99.90
32877;DHT22;19226;51.600;8.034;2023-01-08T14:36:55;10.30;99.90
32877;DHT22;19226;51.600;8.034;2023-01-08T14:39:33;10.40;99.90
32877;DHT22;19226;51.600;8.034;2023-01-08T14:42:31;10.40;99.90
32877;DHT22;19226;51.600;8.034;2023-01-08T14:45:18;10.50;99.90
32877;DHT22;19226;51.600;8.034;2023-01-08T14:47:51;10.50;99.90
32877;DHT22;19226;51.600;8.034;2023-01-08T14:50:34;10.50;99.90
32877;DHT22;19226;51.600;8.034;2023-01-08T14:53:14;10.40;99.90
32877;DHT22;19226;51.600;8.034;2023-01-08T14:55:46;10.40;99.90
32877;DHT22;19226;51.600;8.034;2023-01-08T14:58:21;10.40;99.90
32877;DHT22;19226;51.600;8.034;2023-01-08T15:00:59;10.40;99.90
32877;DHT22;19226;51.600;8.034;2023-01-08T15:03:33;10.30;99.90
32877;DHT22;19226;51.600;8.034;2023-01-08T15:06:00;10.30;99.90
32877;DHT22;19226;51.600;8.034;2023-01-08T15:08:38;10.30;99.90
32877;DHT22;19226;51.600;8.034;2023-01-08T15:13:45;10.20;99.90
32877;DHT22;19226;51.600;8.034;2023-01-08T15:19:18;10.10;99.90
32877;DHT22;19226;51.600;8.034;2023-01-08T15:22:02;10.10;99.90
32877;DHT22;19226;51.600;8.034;2023-01-08T15:24:36;10.00;99.90
32877;DHT22;19226;51.600;8.034;2023-01-08T15:27:06;10.00;99.90
32877;DHT22;19226;51.600;8.034;2023-01-08T15:29:47;10.00;99.90
32877;DHT22;19226;51.600;8.034;2023-01-08T15:34:42;10.00;99.90
32877;DHT22;19226;51.600;8.034;2023-01-08T15:37:08;9.90;99.90
32877;DHT22;19226;51.600;8.034;2023-01-08T15:39:34;9.90;99.90
32877;DHT22;19226;51.600;8.034;2023-01-08T15:45:24;9.80;99.90
32877;DHT22;19226;51.600;8.034;2023-01-08T15:47:52;9.80;99.90
32877;DHT22;19226;51.600;8.034;2023-01-08T15:50:18;9.80;99.90
32877;DHT22;19226;51.600;8.034;2023-01-08T15:52:47;9.80;99.90
32877;DHT22;19226;51.600;8.034;2023-01-08T15:55:16;9.70;99.90
32877;DHT22;19226;51.600;8.034;2023-01-08T15:57:43;9.70;99.90
32877;DHT22;19226;51.600;8.034;2023-01-08T16:00:12;9.60;99.90
32877;DHT22;19226;51.600;8.034;2023-01-08T16:02:46;9.60;99.90
32877;DHT22;19226;51.600;8.034;2023-01-08T16:05:13;9.50;99.90
32877;DHT22;19226;51.600;8.034;2023-01-08T16:07:40;9.50;99.90
32877;DHT22;19226;51.600;8.034;2023-01-08T16:10:12;9.40;99.90
32877;DHT22;19226;51.600;8.034;2023-01-08T16:12:39;9.40;99.90
32877;DHT22;19226;51.600;8.034;2023-01-08T16:15:09;9.40;99.90
32877;DHT22;19226;51.600;8.034;2023-01-08T16:17:36;9.30;99.90
32877;DHT22;19226;51.600;8.034;2023-01-08T16:20:07;9.30;99.90
32877;DHT22;19226;51.600;8.034;2023-01-08T16:22:33;9.30;99.90
32877;DHT22;19226;51.600;8.034;2023-01-08T16:25:00;9.20;99.90
32877;DHT22;19226;51.600;8.034;2023-01-08T16:27:26;9.20;99.90
32877;DHT22;19226;51.600;8.034;2023-01-08T16:29:54;9.20;99.90
32877;DHT22;19226;51.600;8.034;2023-01-08T16:32:21;9.10;99.90
32877;DHT22;19226;51.600;8.034;2023-01-08T16:34:47;9.10;99.90
32877;DHT22;19226;51.600;8.034;2023-01-08T16:37:14;9.10;99.90
32877;DHT22;19226;51.600;8.034;2023-01-08T16:39:43;9.10;99.90
32877;DHT22;19226;51.600;8.034;2023-01-08T16:42:09;9.10;99.90
32877;DHT22;19226;51.600;8.034;2023-01-08T16:44:37;9.10;99.90
32877;DHT22;19226;51.600;8.034;2023-01-08T16:47:03;9.10;99.90
32877;DHT22;19226;51.600;8.034;2023-01-08T16:49:30;9.10;99.90
32877;DHT22;19226;51.600;8.034;2023-01-08T16:51:58;9.10;99.90
32877;DHT22;19226;51.600;8.034;2023-01-08T16:54:24;9.10;99.90
32877;DHT22;19226;51.600;8.034;2023-01-08T16:56:52;9.10;99.90
32877;DHT22;19226;51.600;8.034;2023-01-08T16:59:19;9.10;99.90
32877;DHT22;19226;51.600;8.034;2023-01-08T17:01:45;9.10;99.90
32877;DHT22;19226;51.600;8.034;2023-01-08T17:04:11;9.10;99.90
32877;DHT22;19226;51.600;8.034;2023-01-08T17:06:37;9.00;99.90
32877;DHT22;19226;51.600;8.034;2023-01-08T17:09:04;9.10;99.90
32877;DHT22;19226;51.600;8.034;2023-01-08T17:11:31;9.00;99.90
32877;DHT22;19226;51.600;8.034;2023-01-08T17:13:59;9.00;99.90
32877;DHT22;19226;51.600;8.034;2023-01-08T17:16:25;9.00;99.90
32877;DHT22;19226;51.600;8.034;2023-01-08T17:18:52;9.00;99.90
32877;DHT22;19226;51.600;8.034;2023-01-08T17:21:18;8.90;99.90
32877;DHT22;19226;51.600;8.034;2023-01-08T17:23:45;8.90;99.90
32877;DHT22;19226;51.600;8.034;2023-01-08T17:26:14;8.90;99.90
32877;DHT22;19226;51.600;8.034;2023-01-08T17:28:42;8.90;99.90
32877;DHT22;19226;51.600;8.034;2023-01-08T17:31:11;8.90;99.90
32877;DHT22;19226;51.600;8.034;2023-01-08T17:33:38;8.90;99.90
32877;DHT22;19226;51.600;8.034;2023-01-08T17:36:21;8.90;99.90
32877;DHT22;19226;51.600;8.034;2023-01-08T17:38:52;8.90;99.90
32877;DHT22;19226;51.600;8.034;2023-01-08T17:41:20;8.80;99.90
32877;DHT22;19226;51.600;8.034;2023-01-08T17:44:20;8.80;99.90
32877;DHT22;19226;51.600;8.034;2023-01-08T17:46:46;8.70;99.90
32877;DHT22;19226;51.600;8.034;2023-01-08T17:49:13;8.70;99.90
32877;DHT22;19226;51.600;8.034;2023-01-08T17:51:40;8.70;99.90
32877;DHT22;19226;51.600;8.034;2023-01-08T17:54:12;8.70;99.90
32877;DHT22;19226;51.600;8.034;2023-01-08T17:56:39;8.70;99.90
32877;DHT22;19226;51.600;8.034;2023-01-08T17:59:05;8.70;99.90
32877;DHT22;19226;51.600;8.034;2023-01-08T18:01:32;8.70;99.90
32877;DHT22;19226;51.600;8.034;2023-01-08T18:04:00;8.70;99.90
32877;DHT22;19226;51.600;8.034;2023-01-08T18:06:26;8.70;99.90